createdAt,value
2018-07-21T00:02:10.687Z,5.60
2018-07-21T00:04:39.489Z,4.77
2018-07-21T00:07:08.301Z,3.90
2018-07-21T00:09:37.079Z,5.50
2018-07-21T00:12:05.832Z,4.53
2018-07-21T00:14:34.589Z,4.77
2018-07-21T00:17:03.401Z,4.33
2018-07-21T00:19:32.305Z,4.40
2018-07-21T00:22:01.409Z,5.60
2018-07-21T00:24:30.161Z,3.90
2018-07-21T00:26:58.925Z,4.80
2018-07-21T00:29:27.826Z,6.10
2018-07-21T00:31:56.620Z,5.23
2018-07-21T00:34:25.462Z,4.53
2018-07-21T00:36:54.212Z,5.23
2018-07-21T00:39:23.017Z,4.70
2018-07-21T00:41:51.818Z,4.93
2018-07-21T00:44:20.927Z,5.43
2018-07-21T00:46:49.682Z,5.53
2018-07-21T00:49:18.468Z,4.80
2018-07-21T00:51:47.223Z,3.80
2018-07-21T00:54:15.940Z,4.70
2018-07-21T00:56:44.629Z,4.40
2018-07-21T00:59:13.441Z,5.00
2018-07-21T01:01:42.532Z,4.50
2018-07-21T01:04:11.289Z,4.87
2018-07-21T01:09:15.279Z,4.50
2018-07-21T01:11:44.054Z,4.50
2018-07-21T01:14:12.993Z,4.20
2018-07-21T01:16:41.845Z,5.47
2018-07-21T01:19:10.703Z,4.87
2018-07-21T01:21:39.804Z,4.27
2018-07-21T01:24:08.605Z,4.63
2018-07-21T01:26:37.408Z,4.47
2018-07-21T01:29:06.197Z,5.33
2018-07-21T01:31:35.109Z,5.10
2018-07-21T01:34:04.672Z,5.27
2018-07-21T01:36:33.528Z,5.63
2018-07-21T01:39:02.144Z,4.70
2018-07-21T01:41:30.768Z,4.73
2018-07-21T01:43:59.564Z,4.53
2018-07-21T01:46:28.429Z,4.43
2018-07-21T01:48:57.211Z,4.00
2018-07-21T01:51:25.989Z,4.93
2018-07-21T01:53:54.793Z,4.57
2018-07-21T01:56:23.544Z,4.10
2018-07-21T01:58:52.421Z,4.17
2018-07-21T02:01:21.228Z,4.20
2018-07-21T02:03:50.041Z,4.23
2018-07-21T02:06:19.040Z,4.27
2018-07-21T02:08:47.908Z,3.90
2018-07-21T02:11:16.749Z,4.27
2018-07-21T02:13:45.544Z,3.50
2018-07-21T02:16:14.128Z,4.10
2018-07-21T02:18:42.945Z,5.17
2018-07-21T02:21:11.749Z,5.43
2018-07-21T02:23:40.529Z,4.93
2018-07-21T02:26:09.292Z,7.03
2018-07-21T02:28:38.048Z,4.30
2018-07-21T02:31:06.852Z,4.97
2018-07-21T02:33:35.652Z,4.40
2018-07-21T02:36:04.433Z,5.17
2018-07-21T02:38:33.233Z,5.40
2018-07-21T02:41:02.085Z,5.87
2018-07-21T02:43:30.829Z,5.47
2018-07-21T02:45:59.657Z,4.57
2018-07-21T02:48:28.456Z,4.30
2018-07-21T02:50:57.248Z,4.50
2018-07-21T02:53:26.058Z,5.20
2018-07-21T02:55:54.857Z,5.40
2018-07-21T02:58:23.730Z,5.70
2018-07-21T03:00:52.524Z,4.67
2018-07-21T03:03:21.329Z,5.53
2018-07-21T03:05:50.165Z,5.30
2018-07-21T03:08:19.094Z,4.57
2018-07-21T03:10:47.854Z,4.30
2018-07-21T03:13:16.656Z,4.40
2018-07-21T03:15:45.461Z,4.13
2018-07-21T03:18:14.080Z,4.33
2018-07-21T03:20:42.709Z,4.30
2018-07-21T03:23:11.535Z,4.20
2018-07-21T03:25:40.474Z,4.37
2018-07-21T03:28:09.221Z,3.97
2018-07-21T03:30:37.975Z,4.17
2018-07-21T03:33:07.052Z,4.60
2018-07-21T03:35:35.792Z,4.77
2018-07-21T03:38:04.880Z,5.13
2018-07-21T03:40:33.874Z,4.10
2018-07-21T03:43:02.604Z,4.30
2018-07-21T03:45:31.493Z,4.70
2018-07-21T03:48:00.304Z,4.43
2018-07-21T03:50:29.144Z,4.33
2018-07-21T03:52:58.006Z,4.03
2018-07-21T03:55:26.784Z,4.00
2018-07-21T03:57:55.544Z,4.70
2018-07-21T04:00:24.347Z,3.80
2018-07-21T04:02:53.205Z,4.97
2018-07-21T04:05:22.000Z,3.70
2018-07-21T04:07:50.789Z,4.17
2018-07-21T04:10:19.609Z,4.40
2018-07-21T04:12:48.408Z,4.13
2018-07-21T04:15:17.119Z,4.17
2018-07-21T04:17:45.736Z,3.40
2018-07-21T04:20:14.609Z,4.37
2018-07-21T04:22:43.412Z,4.30
2018-07-21T04:25:12.257Z,3.80
2018-07-21T04:27:41.313Z,4.20
2018-07-21T04:30:10.121Z,4.70
2018-07-21T04:32:38.925Z,4.07
2018-07-21T04:35:07.711Z,4.03
2018-07-21T04:37:36.524Z,3.80
2018-07-21T04:40:05.746Z,3.67
2018-07-21T04:42:34.524Z,4.33
2018-07-21T04:45:03.333Z,3.90
2018-07-21T04:47:32.113Z,3.60
2018-07-21T04:50:00.731Z,4.93
2018-07-21T04:52:29.424Z,4.63
2018-07-21T04:54:58.201Z,5.30
2018-07-21T04:57:26.993Z,3.80
2018-07-21T04:59:55.828Z,4.77
2018-07-21T05:02:24.638Z,4.37
2018-07-21T05:04:53.432Z,4.27
2018-07-21T05:07:22.322Z,4.40
2018-07-21T05:09:51.016Z,4.20
2018-07-21T05:12:19.831Z,4.17
2018-07-21T05:14:48.640Z,5.20
2018-07-21T05:17:17.448Z,4.40
2018-07-21T05:19:46.240Z,3.80
2018-07-21T05:22:15.024Z,3.90
2018-07-21T05:24:43.839Z,4.97
2018-07-21T05:27:12.837Z,4.50
2018-07-21T05:29:42.060Z,3.70
2018-07-21T05:32:11.174Z,4.30
2018-07-21T05:34:39.973Z,4.73
2018-07-21T05:37:08.860Z,4.40
2018-07-21T05:39:37.653Z,3.50
2018-07-21T05:42:06.444Z,3.93
2018-07-21T05:44:35.190Z,2.80
2018-07-21T05:47:03.977Z,3.20
2018-07-21T05:49:32.768Z,2.97
2018-07-21T05:52:01.781Z,2.70
2018-07-21T05:54:30.541Z,2.80
2018-07-21T05:56:59.288Z,2.10
2018-07-21T05:59:28.180Z,2.03
2018-07-21T06:01:56.985Z,2.30
2018-07-21T06:04:25.787Z,2.50
2018-07-21T06:06:54.589Z,2.37
2018-07-21T06:09:23.493Z,1.60
2018-07-21T06:11:52.312Z,2.03
2018-07-21T06:14:21.280Z,2.50
2018-07-21T06:16:50.093Z,1.60
2018-07-21T06:19:19.924Z,2.50
2018-07-21T06:21:48.694Z,2.10
2018-07-21T06:24:17.620Z,1.73
2018-07-21T06:26:46.435Z,1.80
2018-07-21T06:29:15.231Z,1.67
2018-07-21T06:31:44.033Z,1.70
2018-07-21T06:34:12.941Z,2.30
2018-07-21T06:36:41.740Z,1.80
2018-07-21T06:39:12.177Z,1.63
2018-07-21T06:41:41.442Z,1.67
2018-07-21T06:44:10.537Z,1.40
2018-07-21T06:46:39.392Z,2.27
2018-07-21T06:49:08.144Z,1.43
2018-07-21T06:51:37.008Z,1.40
2018-07-21T06:54:06.228Z,1.80
2018-07-21T06:56:34.993Z,1.50
2018-07-21T06:59:03.844Z,1.30
2018-07-21T07:01:32.717Z,1.40
2018-07-21T07:04:01.521Z,2.83
2018-07-21T07:06:30.308Z,1.60
2018-07-21T07:08:59.054Z,1.67
2018-07-21T07:11:27.824Z,1.57
2018-07-21T07:13:56.609Z,1.50
2018-07-21T07:16:25.428Z,1.97
2018-07-21T07:18:54.157Z,2.20
2018-07-21T07:21:22.921Z,1.40
2018-07-21T07:23:51.824Z,1.60
2018-07-21T07:26:20.615Z,2.53
2018-07-21T07:28:49.421Z,1.30
2018-07-21T07:31:18.224Z,1.70
2018-07-21T07:33:47.133Z,2.03
2018-07-21T07:36:15.928Z,2.00
2018-07-21T07:38:44.840Z,2.43
2018-07-21T07:41:13.649Z,2.10
2018-07-21T07:43:42.645Z,2.17
2018-07-21T07:46:11.445Z,2.73
2018-07-21T07:48:40.256Z,1.80
2018-07-21T07:51:09.257Z,2.30
2018-07-21T07:53:38.181Z,2.40
2018-07-21T07:56:07.010Z,2.07
2018-07-21T07:58:35.860Z,1.87
2018-07-21T08:01:04.968Z,2.00
2018-07-21T08:03:33.750Z,2.10
2018-07-21T08:06:02.542Z,3.07
2018-07-21T08:08:31.401Z,2.20
2018-07-21T08:11:00.157Z,2.07
2018-07-21T08:13:28.977Z,3.00
2018-07-21T08:15:57.732Z,1.83
2018-07-21T08:18:26.501Z,2.63
2018-07-21T08:20:55.344Z,2.23
2018-07-21T08:23:24.133Z,2.50
2018-07-21T08:25:52.888Z,2.17
2018-07-21T08:28:21.676Z,1.93
2018-07-21T08:30:50.452Z,2.07
2018-07-21T08:33:19.276Z,1.50
2018-07-21T08:35:49.979Z,2.33
2018-07-21T08:38:18.845Z,3.17
2018-07-21T08:40:47.728Z,1.83
2018-07-21T08:43:16.639Z,2.03
2018-07-21T08:45:45.436Z,2.20
2018-07-21T08:48:14.441Z,2.20
2018-07-21T08:50:43.197Z,1.70
2018-07-21T08:53:11.964Z,1.37
2018-07-21T08:55:40.851Z,1.93
2018-07-21T08:58:09.601Z,2.00
2018-07-21T09:00:38.418Z,2.07
2018-07-21T09:03:07.718Z,2.37
2018-07-21T09:05:36.493Z,2.20
2018-07-21T09:08:05.500Z,2.03
2018-07-21T09:10:34.360Z,2.43
2018-07-21T09:13:03.174Z,2.03
2018-07-21T09:15:32.073Z,2.20
2018-07-21T09:18:00.880Z,2.87
2018-07-21T09:20:29.804Z,2.30
2018-07-21T09:22:58.584Z,2.33
2018-07-21T09:25:27.485Z,1.83
2018-07-21T09:27:56.381Z,1.77
2018-07-21T09:30:25.181Z,2.47
2018-07-21T09:32:53.987Z,2.27
2018-07-21T09:35:22.789Z,2.47
2018-07-21T09:37:51.552Z,2.30
2018-07-21T09:40:20.339Z,2.10
2018-07-21T09:42:49.148Z,2.67
2018-07-21T09:45:17.981Z,2.30
2018-07-21T09:47:47.110Z,2.20
2018-07-21T09:50:15.904Z,2.13
2018-07-21T09:52:44.699Z,2.77
2018-07-21T09:55:13.504Z,1.90
2018-07-21T09:57:42.307Z,2.40
2018-07-21T10:00:12.349Z,2.47
2018-07-21T10:02:41.298Z,3.30
2018-07-21T10:05:10.041Z,2.50
2018-07-21T10:07:38.732Z,2.07
2018-07-21T10:10:07.357Z,2.70
2018-07-21T10:12:36.296Z,3.30
2018-07-21T10:15:05.349Z,3.67
2018-07-21T10:17:34.154Z,2.87
2018-07-21T10:20:03.085Z,2.90
2018-07-21T10:22:31.858Z,2.93
2018-07-21T10:25:06.144Z,3.00
2018-07-21T10:27:40.619Z,2.67
2018-07-21T10:30:09.431Z,3.47
2018-07-21T10:32:38.150Z,3.53
2018-07-21T10:35:07.088Z,3.63
2018-07-21T10:37:35.922Z,2.80
2018-07-21T10:40:04.833Z,2.90
2018-07-21T10:42:33.633Z,3.30
2018-07-21T10:45:02.537Z,3.30
2018-07-21T10:47:31.437Z,2.63
2018-07-21T10:50:00.237Z,4.30
2018-07-21T10:52:29.001Z,2.50
2018-07-21T10:54:57.845Z,2.60
2018-07-21T10:57:26.600Z,3.00
2018-07-21T10:59:55.437Z,2.77
2018-07-21T11:02:24.347Z,2.60
2018-07-21T11:04:53.145Z,2.73
2018-07-21T11:07:21.958Z,2.70
2018-07-21T11:09:51.054Z,2.80
2018-07-21T11:12:26.297Z,2.60
2018-07-21T11:14:55.417Z,2.90
2018-07-21T11:17:24.123Z,3.57
2018-07-21T11:19:52.812Z,2.90
2018-07-21T11:22:21.705Z,2.53
2018-07-21T11:24:50.511Z,3.10
2018-07-21T11:27:19.196Z,3.57
2018-07-21T11:29:47.860Z,2.83
2018-07-21T11:32:16.697Z,2.87
2018-07-21T11:34:45.480Z,3.23
2018-07-21T11:37:14.263Z,3.20
2018-07-21T11:39:43.637Z,3.50
2018-07-21T11:42:12.385Z,2.70
2018-07-21T11:44:41.192Z,3.43
2018-07-21T11:47:09.944Z,2.77
2018-07-21T11:49:38.721Z,3.60
2018-07-21T11:52:07.327Z,3.37
2018-07-21T11:54:35.944Z,3.50
2018-07-21T11:57:04.708Z,2.93
2018-07-21T11:59:33.532Z,3.70
2018-07-21T12:02:02.296Z,3.27
2018-07-21T12:04:31.396Z,3.53
2018-07-21T12:07:00.343Z,3.30
2018-07-21T12:09:29.135Z,3.93
2018-07-21T12:11:57.975Z,2.67
2018-07-21T12:14:26.750Z,3.13
2018-07-21T12:16:55.645Z,3.00
2018-07-21T12:19:24.554Z,3.17
2018-07-21T12:21:53.656Z,2.77
2018-07-21T12:24:22.452Z,3.07
2018-07-21T12:26:51.216Z,3.00
2018-07-21T12:29:20.368Z,2.90
2018-07-21T12:31:49.168Z,3.47
2018-07-21T12:34:18.007Z,2.73
2018-07-21T12:36:46.774Z,2.43
2018-07-21T12:39:15.574Z,2.90
2018-07-21T12:41:44.277Z,2.40
2018-07-21T12:44:12.973Z,2.80
2018-07-21T12:46:41.772Z,3.03
2018-07-21T12:49:10.579Z,2.30
2018-07-21T12:51:39.382Z,2.87
2018-07-21T12:54:08.281Z,2.57
2018-07-21T12:56:37.048Z,2.90
2018-07-21T12:59:06.796Z,3.37
2018-07-21T13:01:35.372Z,3.00
2018-07-21T13:04:04.044Z,3.40
2018-07-21T13:06:32.805Z,2.53
2018-07-21T13:09:01.593Z,3.77
2018-07-21T13:11:30.420Z,3.40
2018-07-21T13:13:59.367Z,2.30
2018-07-21T13:16:28.200Z,3.37
2018-07-21T13:18:57.100Z,2.63
2018-07-21T13:21:26.100Z,2.70
2018-07-21T13:23:54.853Z,2.73
2018-07-21T13:26:23.852Z,3.07
2018-07-21T13:28:52.824Z,3.70
2018-07-21T13:31:21.564Z,2.83
2018-07-21T13:33:50.368Z,3.50
2018-07-21T13:36:19.236Z,2.20
2018-07-21T13:38:48.039Z,2.87
2018-07-21T13:41:16.820Z,2.97
2018-07-21T13:43:45.565Z,3.40
2018-07-21T13:46:14.525Z,3.60
2018-07-21T13:48:43.283Z,2.70
2018-07-21T13:51:12.404Z,3.00
2018-07-21T13:53:41.197Z,2.70
2018-07-21T13:56:10.040Z,2.63
2018-07-21T13:58:39.152Z,4.07
2018-07-21T14:01:08.459Z,3.50
2018-07-21T14:03:37.374Z,5.40
2018-07-21T14:06:06.257Z,3.83
2018-07-21T14:08:35.072Z,26.87
2018-07-21T14:11:04.405Z,10.83
2018-07-21T14:13:33.241Z,3.87
2018-07-21T14:16:02.094Z,4.40
2018-07-21T14:18:31.095Z,3.17
2018-07-21T14:20:59.787Z,3.30
2018-07-21T14:23:28.485Z,3.13
2018-07-21T14:25:57.300Z,5.00
2018-07-21T14:28:26.186Z,3.50
2018-07-21T14:30:55.301Z,3.20
2018-07-21T14:33:24.065Z,3.77
2018-07-21T14:35:52.873Z,4.10
2018-07-21T14:38:21.704Z,4.60
2018-07-21T14:40:50.504Z,3.10
2018-07-21T14:43:19.273Z,3.20
2018-07-21T14:45:48.389Z,3.90
2018-07-21T14:48:17.169Z,4.00
2018-07-21T14:53:21.204Z,3.80
2018-07-21T14:55:49.961Z,3.20
2018-07-21T14:58:18.575Z,2.33
2018-07-21T15:00:47.268Z,3.50
2018-07-21T15:03:16.181Z,2.97
2018-07-21T15:05:44.941Z,2.80
2018-07-21T15:08:13.920Z,3.10
2018-07-21T15:10:42.688Z,2.60
2018-07-21T15:13:11.589Z,3.20
2018-07-21T15:15:40.424Z,2.97
2018-07-21T15:18:09.205Z,2.57
2018-07-21T15:20:37.992Z,3.20
2018-07-21T15:23:06.961Z,3.20
2018-07-21T15:25:35.788Z,3.80
2018-07-21T15:28:04.592Z,2.93
2018-07-21T15:30:34.317Z,2.47
2018-07-21T15:33:03.081Z,3.03
2018-07-21T15:35:32.065Z,2.80
2018-07-21T15:38:00.925Z,2.80
2018-07-21T15:40:29.734Z,2.90
2018-07-21T15:42:58.464Z,2.27
2018-07-21T15:45:27.244Z,2.90
2018-07-21T15:47:56.093Z,2.70
2018-07-21T15:50:24.873Z,2.07
2018-07-21T15:52:53.636Z,2.80
2018-07-21T15:55:22.448Z,2.43
2018-07-21T15:57:51.335Z,3.87
2018-07-21T16:00:20.130Z,2.77
2018-07-21T16:02:48.901Z,3.00
2018-07-21T16:05:17.698Z,3.10
2018-07-21T16:07:46.448Z,3.17
2018-07-21T16:10:15.247Z,3.40
2018-07-21T16:12:44.032Z,3.30
2018-07-21T16:15:12.981Z,3.30
2018-07-21T16:17:41.731Z,3.07
2018-07-21T16:20:10.452Z,3.07
2018-07-21T16:22:39.109Z,3.40
2018-07-21T16:25:07.887Z,3.47
2018-07-21T16:27:36.636Z,3.67
2018-07-21T16:30:05.772Z,3.37
2018-07-21T16:32:34.605Z,2.97
2018-07-21T16:35:03.452Z,2.43
2018-07-21T16:37:32.352Z,2.97
2018-07-21T16:40:01.468Z,3.40
2018-07-21T16:42:30.400Z,2.40
2018-07-21T16:44:59.289Z,2.87
2018-07-21T16:47:28.077Z,3.30
2018-07-21T16:49:56.848Z,3.37
2018-07-21T16:52:25.664Z,2.40
2018-07-21T16:54:54.234Z,3.27
2018-07-21T16:57:22.953Z,3.47
2018-07-21T16:59:51.780Z,2.90
2018-07-21T17:02:20.538Z,3.30
2018-07-21T17:04:49.380Z,3.07
2018-07-21T17:07:18.132Z,3.23
2018-07-21T17:09:46.980Z,3.60
2018-07-21T17:12:15.744Z,5.33
2018-07-21T17:14:44.595Z,4.13
2018-07-21T17:17:13.707Z,5.17
2018-07-21T17:19:42.696Z,3.30
2018-07-21T17:22:11.596Z,3.10
2018-07-21T17:24:40.388Z,3.13
2018-07-21T17:27:09.116Z,3.23
2018-07-21T17:29:37.819Z,3.10
2018-07-21T17:32:06.612Z,2.70
2018-07-21T17:34:35.489Z,2.50
2018-07-21T17:37:04.349Z,2.83
2018-07-21T17:39:33.178Z,2.93
2018-07-21T17:42:01.924Z,3.20
2018-07-21T17:44:30.817Z,4.23
2018-07-21T17:46:59.699Z,3.53
2018-07-21T17:49:28.489Z,3.90
2018-07-21T17:51:57.324Z,3.77
2018-07-21T17:54:26.085Z,3.33
2018-07-21T17:56:54.880Z,2.60
2018-07-21T17:59:23.928Z,2.43
2018-07-21T18:01:52.835Z,3.10
2018-07-21T18:04:21.628Z,3.20
2018-07-21T18:06:50.541Z,3.03
2018-07-21T18:09:19.300Z,2.90
2018-07-21T18:11:48.646Z,3.17
2018-07-21T18:14:17.416Z,3.50
2018-07-21T18:16:46.152Z,3.47
2018-07-21T18:19:14.945Z,3.17
2018-07-21T18:21:43.700Z,2.67
2018-07-21T18:24:12.449Z,2.63
2018-07-21T18:26:41.420Z,3.77
2018-07-21T18:29:10.185Z,3.00
2018-07-21T18:31:38.973Z,3.43
2018-07-21T18:34:08.269Z,3.13
2018-07-21T18:36:37.029Z,3.60
2018-07-21T18:39:08.260Z,3.40
2018-07-21T18:41:37.015Z,3.00
2018-07-21T18:44:06.212Z,3.80
2018-07-21T18:46:34.960Z,3.93
2018-07-21T18:49:03.816Z,3.63
2018-07-21T18:51:32.601Z,3.00
2018-07-21T18:54:01.385Z,2.70
2018-07-21T18:56:30.204Z,3.27
2018-07-21T18:58:59.048Z,4.37
2018-07-21T19:01:27.796Z,3.07
2018-07-21T19:03:56.544Z,3.20
2018-07-21T19:06:25.334Z,4.40
2018-07-21T19:08:59.728Z,4.10
2018-07-21T19:11:28.929Z,4.27
2018-07-21T19:13:58.120Z,3.50
2018-07-21T19:16:32.284Z,3.60
2018-07-21T19:19:01.123Z,3.27
2018-07-21T19:21:29.964Z,3.00
2018-07-21T19:23:58.721Z,4.57
2018-07-21T19:26:33.173Z,4.20
2018-07-21T19:29:01.930Z,3.63
2018-07-21T19:31:30.760Z,3.33
2018-07-21T19:33:59.673Z,3.90
2018-07-21T19:36:28.460Z,3.80
2018-07-21T19:38:57.267Z,4.63
2018-07-21T19:41:31.392Z,3.93
2018-07-21T19:44:00.056Z,4.00
2018-07-21T19:46:28.809Z,4.50
2018-07-21T19:48:57.800Z,4.40
2018-07-21T19:51:26.700Z,3.63
2018-07-21T19:53:55.453Z,4.70
2018-07-21T19:56:24.308Z,4.57
2018-07-21T19:58:53.112Z,4.50
2018-07-21T20:01:21.972Z,4.10
2018-07-21T20:03:50.917Z,4.83
2018-07-21T20:06:19.663Z,5.00
2018-07-21T20:08:48.521Z,5.03
2018-07-21T20:11:17.316Z,5.23
2018-07-21T20:13:46.142Z,5.73
2018-07-21T20:16:14.866Z,4.50
2018-07-21T20:18:43.837Z,4.13
2018-07-21T20:21:12.668Z,4.37
2018-07-21T20:23:41.841Z,4.53
2018-07-21T20:26:10.636Z,5.30
2018-07-21T20:28:39.544Z,5.50
2018-07-21T20:31:08.547Z,5.37
2018-07-21T20:33:37.365Z,5.40
2018-07-21T20:36:06.192Z,4.80
2018-07-21T20:38:34.972Z,4.77
2018-07-21T20:41:03.858Z,4.50
2018-07-21T20:43:32.663Z,4.53
2018-07-21T20:46:01.444Z,4.80
2018-07-21T20:48:30.264Z,4.97
2018-07-21T20:50:59.033Z,4.60
2018-07-21T20:53:27.878Z,4.70
2018-07-21T20:55:56.648Z,4.83
2018-07-21T20:58:25.416Z,5.77
2018-07-21T21:00:54.196Z,4.73
2018-07-21T21:03:23.269Z,5.00
2018-07-21T21:05:52.025Z,4.70
2018-07-21T21:08:20.858Z,5.20
2018-07-21T21:10:49.667Z,6.50
2018-07-21T21:13:18.477Z,4.90
2018-07-21T21:15:47.272Z,5.30
2018-07-21T21:18:15.972Z,6.13
2018-07-21T21:20:44.597Z,5.87
2018-07-21T21:23:13.377Z,7.33
2018-07-21T21:25:42.137Z,7.70
2018-07-21T21:28:10.920Z,8.53
2018-07-21T21:30:39.771Z,8.07
2018-07-21T21:33:08.783Z,6.90
2018-07-21T21:35:37.889Z,7.27
2018-07-21T21:38:06.780Z,6.20
2018-07-21T21:40:35.588Z,6.77
2018-07-21T21:43:04.398Z,6.10
2018-07-21T21:45:33.454Z,5.63
2018-07-21T21:48:02.314Z,6.60
2018-07-21T21:50:31.208Z,6.60
2018-07-21T21:52:59.988Z,6.10
2018-07-21T21:55:28.960Z,6.80
2018-07-21T21:57:57.816Z,8.20
2018-07-21T22:00:32.348Z,6.17
2018-07-21T22:03:01.457Z,6.90
2018-07-21T22:05:30.360Z,6.87
2018-07-21T22:07:58.931Z,7.13
2018-07-21T22:10:27.653Z,6.80
2018-07-21T22:12:56.438Z,6.20
2018-07-21T22:15:25.273Z,6.33
2018-07-21T22:17:54.025Z,6.80
2018-07-21T22:20:22.776Z,6.93
2018-07-21T22:22:51.773Z,7.03
2018-07-21T22:25:20.534Z,7.30
2018-07-21T22:27:49.293Z,5.77
2018-07-21T22:30:20.533Z,7.47
2018-07-21T22:32:49.292Z,6.73
2018-07-21T22:35:18.129Z,7.57
2018-07-21T22:37:46.964Z,6.60
2018-07-21T22:40:15.729Z,6.63
2018-07-21T22:42:44.523Z,6.67
2018-07-21T22:45:13.200Z,7.70
2018-07-21T22:47:41.961Z,6.63
2018-07-21T22:50:10.728Z,7.30
2018-07-21T22:52:39.363Z,7.87
2018-07-21T22:55:08.224Z,6.67
2018-07-21T22:57:37.041Z,6.83
2018-07-21T23:00:06.176Z,9.40
2018-07-21T23:02:35.048Z,6.80
2018-07-21T23:05:03.833Z,8.00
2018-07-21T23:07:32.657Z,8.10
2018-07-21T23:10:01.432Z,7.27
2018-07-21T23:12:30.249Z,8.40
2018-07-21T23:14:59.008Z,9.30
2018-07-21T23:17:27.988Z,7.90
2018-07-21T23:19:56.988Z,8.43
2018-07-21T23:22:25.820Z,7.23
2018-07-21T23:24:54.577Z,8.57
2018-07-21T23:27:23.380Z,8.10
2018-07-21T23:29:52.274Z,8.13
2018-07-21T23:32:21.016Z,7.47
2018-07-21T23:34:50.074Z,7.67
2018-07-21T23:37:18.834Z,7.40
2018-07-21T23:39:47.673Z,7.40
2018-07-21T23:42:16.390Z,6.73
2018-07-21T23:44:45.169Z,7.13
2018-07-21T23:47:13.955Z,7.60
2018-07-21T23:49:42.716Z,8.50
2018-07-21T23:52:11.466Z,8.10
2018-07-21T23:54:40.578Z,6.63
2018-07-21T23:57:09.169Z,7.00
2018-07-21T23:59:37.925Z,8.00
